Latest Weather Observations for Lord Howe Island

IDN60801

Issued at 8:35 pm EDT Thursday 27 November 2014 (issued every 30 minutes, with the page automatically refreshed every 10 minutes)

About weather observations | Map of weather stations | Latest weather observations for NSW | Other Formats
Station Details ID: 200839 Name: LORD HOWE ISLAND AERO Lat: -31.54 Lon: 159.08 Height: 5.0 m
Data from the previous 72 hours. | See also: Recent months at Lord Howe Island
Date/Time
EDT
Temp
°C
App
Temp
°C
Dew
Point
Rel
Hum
%
Delta-T
°C
Wind Press
QNH
hPa
Press
MSL
hPa
Rain
since 9 am
mm
Dir
 
Spd
km/h
Gust
km/h
Spd
kts
Gust
kts
27/08:30pm 19.7 17.5 14.5 72 3.0 SE 19 24 10 13 1018.9 - 21.6
27/08:00pm 19.3 17.2 14.8 75 2.6 ESE 19 26 10 14 1018.6 - 21.6
27/07:30pm 19.3 17.2 15.2 77 2.4 ESE 20 28 11 15 1018.4 - 21.6
27/07:00pm 19.3 17.1 14.5 74 2.8 ESE 19 30 10 16 1018.4 - 21.6
27/06:30pm 20.0 17.9 13.5 66 3.7 ESE 17 28 9 15 1018.1 - 21.6
27/06:23pm 19.7 18.1 15.1 75 2.7 ESE 17 28 9 15 1018.0 - 21.6
27/06:03pm 20.2 19.5 17.4 84 1.7 ESE 17 28 9 15 1017.8 - 21.6
27/06:00pm 20.3 20.1 17.5 84 1.7 ESE 15 22 8 12 1017.8 1017.8 21.6
27/05:56pm 20.3 19.7 17.5 84 1.7 ESE 17 22 9 12 1017.7 - 21.6
27/05:35pm 19.9 19.7 17.6 86 1.4 SE 15 22 8 12 1017.5 - 21.6
27/05:30pm 19.8 20.0 17.7 88 1.3 SE 13 22 7 12 1017.4 - 21.6
27/05:00pm 20.1 20.2 18.3 89 1.1 E 15 19 8 10 1017.1 - 21.6
27/04:30pm 20.1 19.0 18.7 92 0.9 E 22 28 12 15 1016.9 - 21.6
27/04:00pm 20.5 22.3 18.7 89 1.1 ESE 7 17 4 9 1017.5 - 21.2
27/03:30pm 20.5 22.3 18.2 87 1.4 SW 6 11 3 6 1017.6 - 21.0
27/03:05pm 20.7 22.1 18.6 88 1.3 E 9 13 5 7 1017.8 - 21.0
27/03:00pm 20.8 22.2 18.7 88 1.3 ESE 9 13 5 7 1017.8 1017.8 21.0
27/02:36pm 20.6 22.0 18.7 89 1.2 E 9 15 5 8 1017.7 - 21.0
27/02:30pm 20.7 21.2 18.3 86 1.5 E 13 19 7 10 1017.4 - 21.0
27/02:00pm 20.9 20.7 18.5 86 1.5 ENE 17 22 9 12 1016.9 - 21.0
27/01:56pm 20.9 20.4 18.7 87 1.4 ENE 19 24 10 13 1016.9 - 21.0
27/01:46pm 20.8 20.1 18.6 87 1.4 ENE 20 28 11 15 1016.7 - 21.0
27/01:30pm 21.0 20.8 19.7 92 0.8 E 20 35 11 19 1016.1 - 21.0
27/01:25pm 20.6 20.6 19.0 90 1.0 ESE 17 28 9 15 1016.7 - 21.0
27/01:00pm 19.9 20.1 18.5 92 0.9 ESE 15 32 8 17 1017.3 - 21.0
27/12:30pm 20.2 18.8 18.8 92 0.9 E 24 35 13 19 1017.6 - 20.6
27/12:00pm 20.1 19.3 18.5 90 1.0 ESE 20 33 11 18 1017.6 1017.6 18.2
27/11:30am 20.0 19.2 18.1 89 1.2 ESE 19 28 10 15 1017.2 - 17.0
27/11:00am 19.9 20.2 18.0 89 1.2 ENE 13 26 7 14 1017.5 - 16.0
27/10:55am 19.1 20.0 17.6 91 0.9 NNE 9 15 5 8 1017.7 - 15.8
27/10:36am 19.3 20.4 17.2 88 1.3 ESE 7 15 4 8 1017.3 - 14.6
27/10:30am 19.4 20.3 16.7 84 1.6 SE 7 15 4 8 1017.3 - 14.6
27/10:23am 19.4 20.2 17.3 88 1.3 SSW 9 19 5 10 1017.4 - 13.8
27/10:03am 20.7 22.7 19.9 95 0.5 NW 9 19 5 10 1017.4 - 2.0
27/10:00am 21.0 23.3 19.9 93 0.7 NNW 7 13 4 7 1017.2 - 0.4
27/09:47am 21.3 23.2 19.7 91 1.0 ENE 9 13 5 7 1017.0 - 0.0
27/09:30am 21.3 22.4 19.7 91 1.0 ENE 13 19 7 10 1017.0 - 0.0
27/09:00am 21.6 23.0 20.4 93 0.8 ENE 13 19 7 10 1017.3 1017.3 7.0
27/08:30am 21.2 22.6 20.4 95 0.5 NE 13 17 7 9 1017.1 - 6.6
27/08:00am 21.2 22.2 20.3 95 0.6 ENE 15 19 8 10 1017.3 - 5.4
27/07:30am 21.2 21.5 19.6 90 1.0 ENE 17 24 9 13 1017.0 - 5.2
27/07:00am 21.2 20.9 19.5 90 1.1 ENE 20 24 11 13 1016.8 - 5.2
27/06:30am 21.3 21.3 20.1 93 0.8 ENE 20 22 11 12 1016.7 - 5.2
27/06:00am 21.4 22.6 20.0 92 0.9 E 13 19 7 10 1016.7 1016.7 5.2
27/05:30am 21.2 21.9 19.6 90 1.0 E 15 20 8 11 1016.7 - 5.2
27/05:00am 21.2 21.5 19.6 90 1.0 E 17 20 9 11 1016.6 - 5.2
27/04:30am 21.1 21.7 19.4 90 1.1 E 15 20 8 11 1016.7 - 5.2
27/04:00am 21.1 21.7 19.5 90 1.0 E 15 20 8 11 1016.5 - 5.2
27/03:30am 20.9 21.1 19.3 90 1.0 E 17 20 9 11 1016.5 - 5.2
27/03:04am 20.9 21.5 19.5 92 0.9 E 15 19 8 10 1016.5 - 5.2
27/03:00am 20.8 21.4 19.5 92 0.8 E 15 17 8 9 1016.5 1016.5 5.2
27/02:30am 20.8 21.8 19.4 92 0.9 E 13 17 7 9 1016.7 - 5.2
27/02:26am 20.8 21.8 19.4 92 0.9 E 13 17 7 9 1016.7 - 5.2
27/02:00am 21.0 21.2 19.3 90 1.1 E 17 19 9 10 1016.9 - 5.2
27/01:30am 21.0 22.0 19.4 90 1.0 E 13 17 7 9 1017.4 - 5.2
27/01:00am 21.0 21.3 19.6 92 0.9 E 17 20 9 11 1017.4 - 5.2
27/12:58am 21.0 21.3 19.6 92 0.9 E 17 20 9 11 1017.4 - 5.2
27/12:46am 21.0 22.8 19.6 92 0.9 ESE 9 17 5 9 1017.9 - 5.2
27/12:30am 20.9 21.9 19.5 92 0.9 ESE 13 20 7 11 1017.8 - 5.2
27/12:27am 20.9 21.4 19.3 90 1.0 E 15 24 8 13 1017.8 - 5.2
27/12:00am 20.9 22.6 19.3 90 1.0 SE 9 15 5 8 1018.2 1018.2 5.2
 
Date/Time
EDT
Temp
°C
App
Temp
°C
Dew
Point
Rel
Hum
%
Delta-T
°C
Wind Press
QNH
hPa
Press
MSL
hPa
Rain
since 9 am
mm
Dir
 
Spd
km/h
Gust
km/h
Spd
kts
Gust
kts
26/11:30pm 20.9 23.0 19.3 90 1.0 SE 7 11 4 6 1018.8 - 5.2
26/11:00pm 20.9 20.2 19.6 92 0.8 E 22 26 12 14 1018.5 - 5.2
26/10:30pm 20.9 20.6 19.5 92 0.9 E 20 24 11 13 1018.9 - 5.2
26/10:08pm 20.9 20.6 19.6 92 0.8 ENE 20 24 11 13 1019.0 - 5.2
26/10:00pm 20.9 20.8 19.5 92 0.9 E 19 24 10 13 1018.8 - 5.2
26/09:56pm 21.0 21.0 19.7 92 0.8 ENE 19 24 10 13 1018.8 - 5.2
26/09:30pm 20.9 20.8 19.5 92 0.9 E 19 26 10 14 1018.6 - 5.2
26/09:00pm 20.9 20.2 19.6 92 0.8 E 22 28 12 15 1018.4 1018.4 5.2
26/08:30pm 20.9 23.1 19.5 92 0.9 SE 7 9 4 5 1018.9 - 5.2
26/08:00pm 20.9 21.2 19.5 92 0.9 E 17 20 9 11 1018.7 - 5.2
26/07:30pm 20.8 20.5 19.5 92 0.8 E 20 28 11 15 1018.1 - 5.2
26/07:00pm 20.8 20.1 19.5 92 0.8 E 22 26 12 14 1018.2 - 5.2
26/06:30pm 20.7 22.1 19.6 93 0.7 E 11 15 6 8 1018.7 - 5.2
26/06:00pm 20.8 21.0 19.4 92 0.9 E 17 20 9 11 1018.3 1018.3 5.2
26/05:44pm 20.8 20.6 19.4 92 0.9 E 19 22 10 12 1018.1 - 4.8
26/05:30pm 20.7 20.9 19.3 92 0.9 E 17 20 9 11 1017.8 - 4.8
26/05:10pm 20.7 20.9 19.3 92 0.9 E 17 22 9 12 1017.8 - 4.8
26/05:00pm 20.7 20.9 19.3 92 0.9 E 17 20 9 11 1017.8 - 4.8
26/04:30pm 20.7 20.5 19.4 92 0.8 E 19 20 10 11 1017.8 - 4.8
26/04:00pm 20.8 20.8 19.7 93 0.7 E 19 22 10 12 1017.8 - 4.8
26/03:30pm 20.8 21.1 19.5 92 0.8 E 17 20 9 11 1017.9 - 4.6
26/03:00pm 20.7 20.3 19.4 92 0.8 E 20 24 11 13 1018.0 1018.0 4.6
26/02:47pm 20.8 20.4 19.4 92 0.9 E 20 26 11 14 1017.9 - 4.6
26/02:30pm 20.7 20.3 19.3 92 0.9 E 20 24 11 13 1018.1 - 4.4
26/02:00pm 21.0 20.9 19.6 92 0.9 E 19 22 10 12 1018.4 - 4.4
26/01:30pm 20.8 20.7 19.5 92 0.8 E 19 22 10 12 1018.4 - 4.4
26/01:00pm 20.9 20.6 19.5 92 0.9 E 20 24 11 13 1018.6 - 4.4
26/12:30pm 20.8 20.1 19.4 92 0.9 E 22 26 12 14 1018.7 - 4.4
26/12:00pm 21.2 20.7 19.9 92 0.8 E 22 28 12 15 1018.7 1018.7 4.4
26/11:30am 20.5 18.9 19.1 92 0.9 E 26 32 14 17 1018.9 - 4.2
26/11:00am 19.9 18.1 18.8 93 0.7 E 26 32 14 17 1018.9 - 4.2
26/10:30am 19.4 17.1 18.4 94 0.6 E 28 41 15 22 1019.0 - 4.2
26/10:00am 19.5 18.3 18.4 93 0.7 ESE 22 33 12 18 1018.9 - 4.2
26/09:55am 19.3 17.9 18.0 92 0.8 ESE 22 33 12 18 1019.1 - 4.2
26/09:30am 18.8 16.6 17.8 94 0.6 E 26 37 14 20 1019.0 - 2.6
26/09:21am 19.0 17.2 17.9 93 0.7 ESE 24 33 13 18 1019.2 - 1.0
26/09:00am 19.0 15.6 17.7 92 0.8 E 32 43 17 23 1018.9 1018.9 15.0
26/08:30am 18.9 17.7 17.6 92 0.8 ESE 20 41 11 22 1018.9 - 11.0
26/08:15am 19.2 18.9 18.2 94 0.6 ESE 17 33 9 18 1019.0 - 7.6
26/08:00am 19.3 18.9 18.0 92 0.8 ESE 17 28 9 15 1018.9 - 4.2
26/07:57am 19.3 18.4 17.8 91 0.9 SE 19 33 10 18 1018.8 - 4.0
26/07:50am 19.5 17.0 18.0 91 0.9 ESE 28 48 15 26 1018.8 - 3.4
26/07:30am 19.6 15.6 17.6 88 1.2 E 35 48 19 26 1018.3 - 3.4
26/07:16am 19.6 17.2 18.3 92 0.8 E 28 43 15 23 1018.2 - 3.4
26/07:00am 19.5 17.8 18.2 92 0.8 ESE 24 37 13 20 1018.1 - 3.2
26/06:46am 20.1 17.9 17.8 86 1.4 E 26 39 14 21 1018.0 - 1.2
26/06:30am 20.8 17.2 16.3 75 2.7 E 30 44 16 24 1017.8 - 0.6
26/06:04am 20.7 17.0 16.0 74 2.8 ESE 30 48 16 26 1017.3 - 0.6
26/06:00am 20.8 16.6 15.8 73 3.0 E 32 44 17 24 1017.3 1017.3 0.6
26/05:30am 20.5 18.7 17.0 80 2.1 ESE 22 44 12 24 1017.2 - 0.6
26/05:00am 20.6 19.2 17.0 80 2.2 ESE 20 35 11 19 1017.1 - 0.4
26/04:30am 20.5 18.0 17.2 81 2.0 ESE 26 46 14 25 1016.5 - 0.4
26/04:10am 20.4 17.7 17.5 83 1.8 ESE 28 46 15 25 1016.5 - 0.4
26/04:06am 20.5 16.4 17.4 82 1.9 E 35 46 19 25 1016.3 - 0.4
26/04:00am 20.5 18.8 18.2 87 1.4 SE 24 35 13 19 1016.5 - 0.4
26/03:36am 20.8 19.4 18.7 88 1.3 ESE 24 39 13 21 1016.5 - 0.4
26/03:30am 20.9 19.8 18.7 87 1.4 SE 22 39 12 21 1016.5 - 0.4
26/03:12am 21.0 20.2 19.3 90 1.1 ESE 22 33 12 18 1016.6 - 0.4
26/03:00am 21.1 20.1 18.9 87 1.4 SE 22 35 12 19 1016.5 1016.5 0.4
26/02:42am 21.3 21.1 19.4 89 1.2 SE 19 32 10 17 1016.7 - 0.4
26/02:40am 21.4 21.2 19.3 88 1.3 SE 19 32 10 17 1016.7 - 0.4
26/02:30am 21.3 21.2 19.6 90 1.1 ESE 19 28 10 15 1016.6 - 0.4
26/02:28am 21.5 21.4 19.6 89 1.2 ESE 19 28 10 15 1016.6 - 0.4
26/02:22am 21.4 21.1 19.5 89 1.2 SE 20 33 11 18 1016.7 - 0.4
26/02:19am 21.2 21.2 19.8 92 0.9 SE 19 33 10 18 1016.7 - 0.4
26/02:06am 21.1 21.2 20.0 93 0.7 ESE 19 28 10 15 1016.8 - 0.4
26/02:00am 21.3 21.3 19.7 91 1.0 ESE 19 28 10 15 1016.8 - 0.4
26/01:30am 22.3 23.6 20.1 87 1.4 ESE 13 20 7 11 1016.9 - 0.4
26/01:18am 21.9 23.5 20.0 89 1.2 ESE 11 17 6 9 1017.0 - 0.4
26/01:00am 22.2 24.7 21.0 93 0.8 ESE 9 17 5 9 1017.2 - 0.4
26/12:56am 22.3 24.8 21.1 93 0.8 SSE 9 13 5 7 1017.2 - 0.4
26/12:42am 22.7 25.4 21.3 92 0.9 NW 9 17 5 9 1017.3 - 0.0
26/12:30am 22.7 25.4 21.3 92 0.9 WNW 9 15 5 8 1017.4 - 0.0
26/12:23am 22.7 25.7 21.3 92 0.9 NW 7 15 4 8 1017.4 - 0.0
26/12:00am 22.7 25.0 21.3 92 0.9 NNW 11 17 6 9 1017.6 1017.6 0.0
 
Date/Time
EDT
Temp
°C
App
Temp
°C
Dew
Point
Rel
Hum
%
Delta-T
°C
Wind Press
QNH
hPa
Press
MSL
hPa
Rain
since 9 am
mm
Dir
 
Spd
km/h
Gust
km/h
Spd
kts
Gust
kts
25/11:58pm 22.6 24.9 21.4 93 0.8 NNW 11 17 6 9 1017.7 - 0.0
25/11:30pm 22.7 24.9 21.2 91 1.0 NW 11 17 6 9 1018.1 - 0.0
25/11:18pm 22.9 24.6 20.9 88 1.3 NNW 13 20 7 11 1018.1 - 0.0
25/11:13pm 22.9 25.0 20.9 88 1.3 NNW 11 19 6 10 1018.1 - 0.0
25/11:00pm 23.0 25.1 21.0 88 1.3 NNW 11 20 6 11 1018.1 - 0.0
25/10:30pm 23.2 25.2 20.7 86 1.6 NNW 11 19 6 10 1018.0 - 0.0
25/10:00pm 23.2 25.5 20.7 86 1.6 NNW 9 17 5 9 1018.1 - 0.0
25/09:30pm 23.4 25.6 20.5 84 1.9 NW 9 17 5 9 1018.1 - 0.0
25/09:00pm 23.5 26.1 20.4 83 2.0 WNW 7 13 4 7 1017.9 1017.9 0.0
25/08:30pm 23.5 25.7 20.4 83 2.0 WNW 9 15 5 8 1017.7 - 0.0
25/08:00pm 23.5 25.7 20.3 82 2.1 WNW 9 15 5 8 1017.4 - 0.0
25/07:30pm 23.4 25.4 20.8 85 1.7 W 11 17 6 9 1017.2 - 0.0
25/07:00pm 23.3 25.8 21.0 87 1.5 WSW 9 15 5 8 1016.9 - 0.0
25/06:56pm 23.3 25.8 21.0 87 1.5 WSW 9 15 5 8 1016.8 - 0.0
25/06:30pm 23.3 25.1 21.2 88 1.4 WSW 13 19 7 10 1016.4 - 0.0
25/06:00pm 23.6 24.7 21.2 86 1.6 WSW 17 20 9 11 1016.1 1016.1 0.0
25/05:30pm 23.7 24.3 21.3 86 1.6 WSW 20 24 11 13 1015.8 - 0.0
25/05:00pm 24.9 25.3 20.9 78 2.6 W 20 24 11 13 1015.5 - 0.0
25/04:30pm 25.5 25.9 20.6 74 3.2 W 19 26 10 14 1015.4 - 0.0
25/04:00pm 25.4 25.5 20.0 72 3.5 W 19 24 10 13 1015.5 - 0.0
25/03:30pm 24.9 24.8 19.6 72 3.4 W 19 24 10 13 1015.5 - 0.0
25/03:00pm 25.6 25.1 19.2 67 4.1 WNW 20 32 11 17 1015.5 1015.5 0.0
25/02:30pm 25.7 25.6 19.5 68 4.0 WNW 19 26 10 14 1015.6 - 0.0
25/02:00pm 25.5 24.9 18.9 67 4.2 WNW 20 33 11 18 1015.6 - 0.0
25/01:30pm 25.8 25.4 18.9 65 4.4 WNW 19 32 10 17 1015.7 - 0.0
25/01:00pm 25.6 24.9 18.7 65 4.4 WNW 20 30 11 16 1016.1 - 0.0
25/12:30pm 25.5 24.8 18.6 65 4.4 WNW 20 33 11 18 1016.4 - 0.0
25/12:00pm 25.4 24.0 17.9 63 4.7 WNW 22 37 12 20 1016.7 1016.7 0.0
25/11:30am 25.7 25.0 18.3 63 4.7 WNW 19 33 10 18 1016.7 - 0.0
25/11:00am 26.0 25.3 18.3 62 4.9 WNW 19 33 10 18 1016.8 - 0.0
25/10:30am 25.8 25.0 18.0 62 4.9 NW 19 35 10 19 1017.0 - 0.0
25/10:00am 24.8 23.9 17.8 65 4.4 NW 19 39 10 21 1017.2 - 0.0
25/09:30am 24.5 24.8 17.8 66 4.2 N 13 22 7 12 1017.1 - 0.0
25/09:00am 24.7 23.6 17.3 63 4.6 NW 19 43 10 23 1017.1 1017.1 0.0
25/08:30am 24.1 22.7 17.0 64 4.4 WNW 20 37 11 20 1017.2 - 0.0
25/08:00am 24.2 24.0 18.5 70 3.6 NW 17 32 9 17 1017.3 - 0.0
25/07:30am 23.1 22.8 17.4 70 3.5 NNW 15 28 8 15 1017.3 - 0.0
25/07:00am 22.7 21.8 16.8 69 3.6 NW 17 32 9 17 1017.4 - 0.0
25/06:30am 22.6 22.8 16.7 69 3.6 WNW 11 20 6 11 1017.1 - 0.0
25/06:00am 22.5 21.4 17.3 72 3.2 NNW 19 37 10 20 1016.6 1016.6 0.0
25/05:30am 22.4 21.1 16.7 70 3.5 NNW 19 33 10 18 1016.7 - 0.0
25/05:00am 22.1 21.7 17.2 74 3.0 N 15 30 8 16 1016.3 - 0.0
25/04:30am 22.2 21.8 17.1 73 3.1 N 15 35 8 19 1016.2 - 0.0
25/04:00am 22.3 22.3 17.3 73 3.1 NNE 13 20 7 11 1016.1 - 0.0
25/03:30am 22.1 22.2 17.4 74 2.9 N 13 28 7 15 1015.9 - 0.0
25/03:00am 22.1 21.4 17.4 74 2.9 NNE 17 32 9 17 1015.8 1015.8 0.0
25/02:30am 22.3 21.9 18.0 76 2.7 NNE 17 28 9 15 1015.9 - 0.0
25/02:00am 22.2 22.2 18.0 77 2.6 NNE 15 28 8 15 1016.4 - 0.0
25/01:30am 22.3 22.0 17.4 74 3.0 NNE 15 26 8 14 1016.8 - 0.0
25/01:00am 22.2 22.6 18.2 78 2.5 NNE 13 28 7 15 1017.2 - 0.0
25/12:30am 22.1 21.8 18.3 79 2.4 NNE 17 39 9 21 1017.2 - 0.0
25/12:00am 22.2 21.7 17.8 76 2.7 NNE 17 35 9 19 1017.3 1017.3 0.0
 
Date/Time
EDT
Temp
°C
App
Temp
°C
Dew
Point
Rel
Hum
%
Delta-T
°C
Wind Press
QNH
hPa
Press
MSL
hPa
Rain
since 9 am
mm
Dir
 
Spd
km/h
Gust
km/h
Spd
kts
Gust
kts
24/11:30pm 22.1 21.2 17.7 76 2.7 NNE 19 33 10 18 1017.6 - 0.0
24/11:00pm 22.0 22.0 18.1 78 2.4 NNE 15 35 8 19 1017.7 - 0.0
24/10:30pm 22.1 22.1 18.1 78 2.5 NNE 15 26 8 14 1018.0 - 0.0
24/10:00pm 22.2 21.7 17.7 75 2.8 NNE 17 35 9 19 1018.0 - 0.0
24/09:30pm 22.1 22.2 18.3 79 2.4 NNE 15 33 8 18 1017.9 - 0.0
24/09:00pm 22.1 22.6 18.4 79 2.3 N 13 22 7 12 1017.9 1017.9 0.0

Other Formats:

Comma delimited format used in spreadsheet applications
http://www.bom.gov.au/fwo/IDN60801/IDN60801.94995.axf

JavaScript Object Notation format (JSON) in row-major order
http://www.bom.gov.au/fwo/IDN60801/IDN60801.94995.json